createdAt,value
2018-05-03T00:00:46.355Z,8.80
2018-05-03T00:03:14.696Z,8.70
2018-05-03T00:05:43.007Z,8.70
2018-05-03T00:08:10.576Z,8.70
2018-05-03T00:10:38.127Z,8.70
2018-05-03T00:13:05.692Z,8.70
2018-05-03T00:15:33.245Z,8.80
2018-05-03T00:18:00.836Z,8.80
2018-05-03T00:20:28.386Z,8.90
2018-05-03T00:22:55.952Z,8.90
2018-05-03T00:25:23.537Z,8.90
2018-05-03T00:27:51.180Z,9.00
2018-05-03T00:30:18.669Z,9.00
2018-05-03T00:32:46.232Z,9.00
2018-05-03T00:35:13.784Z,9.00
2018-05-03T00:37:42.123Z,9.00
2018-05-03T00:40:09.691Z,9.00
2018-05-03T00:42:37.256Z,9.00
2018-05-03T00:45:04.804Z,9.00
2018-05-03T00:47:32.364Z,9.00
2018-05-03T00:49:59.916Z,9.00
2018-05-03T00:52:27.488Z,9.00
2018-05-03T00:54:55.087Z,9.10
2018-05-03T00:57:23.400Z,9.10
2018-05-03T00:59:50.964Z,9.10
2018-05-03T01:02:18.512Z,9.10
2018-05-03T01:04:46.844Z,9.10
2018-05-03T01:07:14.387Z,9.10
2018-05-03T01:09:42.720Z,9.00
2018-05-03T01:12:10.263Z,9.00
2018-05-03T01:14:37.820Z,9.00
2018-05-03T01:17:05.366Z,9.00
2018-05-03T01:19:32.965Z,9.00
2018-05-03T01:22:00.511Z,9.10
2018-05-03T01:24:28.852Z,9.10
2018-05-03T01:26:56.396Z,9.10
2018-05-03T01:29:23.960Z,9.20
2018-05-03T01:31:52.275Z,9.20
2018-05-03T01:34:19.847Z,9.10
2018-05-03T01:36:47.401Z,9.10
2018-05-03T01:39:14.958Z,9.20
2018-05-03T01:41:43.273Z,9.10
2018-05-03T01:44:10.835Z,9.10
2018-05-03T01:46:38.377Z,9.10
2018-05-03T01:49:05.948Z,9.10
2018-05-03T01:51:33.496Z,9.10
2018-05-03T01:54:01.067Z,9.10
2018-05-03T01:56:28.611Z,9.10
2018-05-03T01:58:56.163Z,9.10
2018-05-03T02:01:23.744Z,9.10
2018-05-03T02:03:51.288Z,9.10
2018-05-03T02:06:19.628Z,9.10
2018-05-03T02:08:47.176Z,9.10
2018-05-03T02:11:14.743Z,9.10
2018-05-03T02:13:42.288Z,9.10
2018-05-03T02:16:10.625Z,9.10
2018-05-03T02:18:38.172Z,9.10
2018-05-03T02:21:05.740Z,9.10
2018-05-03T02:23:33.284Z,9.10
2018-05-03T02:26:00.851Z,9.10
2018-05-03T02:28:28.406Z,9.10
2018-05-03T02:30:55.975Z,9.10
2018-05-03T02:33:23.525Z,9.10
2018-05-03T02:35:51.087Z,9.10
2018-05-03T02:38:18.632Z,9.10
2018-05-03T02:40:46.964Z,9.00
2018-05-03T02:43:14.532Z,9.00
2018-05-03T02:45:42.100Z,9.00
2018-05-03T02:48:09.645Z,9.00
2018-05-03T02:50:37.211Z,9.00
2018-05-03T02:53:05.532Z,9.00
2018-05-03T02:55:33.108Z,8.90
2018-05-03T02:58:18.581Z,9.00
2018-05-03T03:01:03.961Z,8.90
2018-05-03T03:03:49.227Z,8.90
2018-05-03T03:06:35.060Z,8.90
2018-05-03T03:12:41.260Z,8.90
2018-05-03T03:15:27.047Z,8.90
2018-05-03T03:18:12.163Z,8.80
2018-05-03T03:24:15.339Z,8.80
2018-05-03T03:30:07.060Z,8.70
2018-05-03T03:32:47.263Z,8.60
2018-05-03T03:38:35.720Z,8.50
2018-05-03T03:41:15.843Z,8.40
2018-05-03T03:43:55.249Z,8.40
2018-05-03T03:46:22.804Z,8.40
2018-05-03T03:48:51.143Z,8.30
2018-05-03T03:51:18.683Z,8.30
2018-05-03T03:53:46.252Z,8.30
2018-05-03T03:56:13.799Z,8.30
2018-05-03T03:58:41.365Z,8.30
2018-05-03T04:01:08.907Z,8.30
2018-05-03T04:03:36.479Z,8.30
2018-05-03T04:06:04.032Z,8.30
2018-05-03T04:08:31.588Z,8.30
2018-05-03T04:10:59.152Z,8.40
2018-05-03T04:13:26.699Z,8.40
2018-05-03T04:15:54.276Z,8.40
2018-05-03T04:18:34.447Z,8.30
2018-05-03T04:21:13.787Z,8.30
2018-05-03T04:24:10.315Z,8.30
2018-05-03T04:26:38.056Z,8.30
2018-05-03T04:29:05.599Z,8.20
2018-05-03T04:31:33.936Z,8.30
2018-05-03T04:34:01.485Z,8.30
2018-05-03T04:36:29.060Z,8.30
2018-05-03T04:38:56.605Z,8.40
2018-05-03T04:41:24.951Z,8.40
2018-05-03T04:43:52.488Z,8.40
2018-05-03T04:46:20.043Z,8.40
2018-05-03T04:48:48.378Z,8.40
2018-05-03T04:51:16.027Z,8.40
2018-05-03T04:53:43.597Z,8.40
2018-05-03T04:56:11.151Z,8.40
2018-05-03T04:58:38.739Z,8.40
2018-05-03T05:01:06.279Z,8.50
2018-05-03T05:03:34.611Z,8.50
2018-05-03T05:06:02.158Z,8.50
2018-05-03T05:08:30.498Z,8.60
2018-05-03T05:10:58.050Z,8.60
2018-05-03T05:13:25.615Z,8.70
2018-05-03T05:15:53.197Z,8.80
2018-05-03T05:18:20.767Z,8.90
2018-05-03T05:20:48.311Z,9.00
2018-05-03T05:23:15.880Z,9.10
2018-05-03T05:25:43.437Z,9.20
2018-05-03T05:28:11.791Z,9.20
2018-05-03T05:30:39.410Z,9.20
2018-05-03T05:33:06.907Z,9.30
2018-05-03T05:35:34.470Z,9.40
2018-05-03T05:38:02.016Z,9.40
2018-05-03T05:40:30.352Z,9.60
2018-05-03T05:42:57.891Z,9.60
2018-05-03T05:45:25.459Z,9.60
2018-05-03T05:47:53.022Z,9.70
2018-05-03T05:50:21.368Z,9.80
2018-05-03T05:52:48.918Z,9.70
2018-05-03T05:55:16.483Z,9.80
2018-05-03T05:57:44.029Z,9.80
2018-05-03T06:00:12.363Z,9.90
2018-05-03T06:02:39.909Z,9.90
2018-05-03T06:05:07.499Z,10.00
2018-05-03T06:07:35.055Z,10.20
2018-05-03T06:10:02.648Z,10.30
2018-05-03T06:12:30.205Z,10.40
2018-05-03T06:14:57.761Z,10.50
2018-05-03T06:17:25.355Z,10.60
2018-05-03T06:19:52.912Z,10.70
2018-05-03T06:22:20.488Z,10.80
2018-05-03T06:24:48.045Z,10.90
2018-05-03T06:27:15.631Z,11.00
2018-05-03T06:29:43.192Z,11.10
2018-05-03T06:32:10.772Z,11.30
2018-05-03T06:34:38.332Z,11.50
2018-05-03T06:37:05.904Z,11.90
2018-05-03T06:39:33.456Z,12.50
2018-05-03T06:42:01.788Z,13.50
2018-05-03T06:44:29.340Z,13.40
2018-05-03T06:46:56.917Z,13.90
2018-05-03T06:49:24.464Z,14.50
2018-05-03T06:51:52.806Z,14.50
2018-05-03T06:54:20.360Z,14.50
2018-05-03T06:56:47.939Z,14.40
2018-05-03T06:59:15.490Z,14.30
2018-05-03T07:01:43.064Z,14.20
2018-05-03T07:04:10.658Z,14.00
2018-05-03T07:06:38.226Z,13.90
2018-05-03T07:09:05.799Z,13.80
2018-05-03T07:11:33.353Z,13.80
2018-05-03T07:14:00.919Z,13.70
2018-05-03T07:16:28.465Z,13.70
2018-05-03T07:18:56.048Z,13.80
2018-05-03T07:21:24.371Z,14.20
2018-05-03T07:23:51.973Z,14.10
2018-05-03T07:26:19.516Z,14.30
2018-05-03T07:28:47.091Z,14.50
2018-05-03T07:31:14.641Z,14.80
2018-05-03T07:33:42.213Z,15.00
2018-05-03T07:36:09.772Z,15.30
2018-05-03T07:38:38.110Z,15.50
2018-05-03T07:41:05.656Z,15.50
2018-05-03T07:43:33.203Z,15.40
2018-05-03T07:46:01.546Z,15.30
2018-05-03T07:48:29.123Z,15.30
2018-05-03T07:50:56.695Z,15.50
2018-05-03T07:53:24.250Z,15.70
2018-05-03T07:55:51.836Z,15.80
2018-05-03T07:58:19.383Z,15.80
2018-05-03T08:00:46.960Z,15.80
2018-05-03T08:03:14.517Z,15.90
2018-05-03T08:05:42.096Z,15.90
2018-05-03T08:08:09.642Z,16.00
2018-05-03T08:10:37.211Z,16.00
2018-05-03T08:13:05.525Z,16.10
2018-05-03T08:15:33.104Z,16.10
2018-05-03T08:18:00.659Z,16.00
2018-05-03T08:20:28.230Z,16.00
2018-05-03T08:22:55.775Z,15.90
2018-05-03T08:25:24.114Z,15.80
2018-05-03T08:27:52.439Z,15.90
2018-05-03T08:30:20.012Z,15.90
2018-05-03T08:32:48.364Z,16.20
2018-05-03T08:35:15.941Z,16.20
2018-05-03T08:37:43.489Z,16.60
2018-05-03T08:40:11.058Z,17.10
2018-05-03T08:42:38.612Z,17.50
2018-05-03T08:45:06.956Z,18.00
2018-05-03T08:47:34.505Z,18.00
2018-05-03T08:50:02.065Z,18.60
2018-05-03T08:52:29.648Z,18.80
2018-05-03T08:54:57.201Z,18.70
2018-05-03T08:57:24.767Z,18.60
2018-05-03T08:59:52.325Z,18.30
2018-05-03T09:02:20.664Z,18.30
2018-05-03T09:04:48.231Z,18.30
2018-05-03T09:07:15.808Z,18.40
2018-05-03T09:09:43.355Z,18.30
2018-05-03T09:12:10.925Z,18.20
2018-05-03T09:14:38.518Z,18.30
2018-05-03T09:17:06.098Z,18.70
2018-05-03T09:19:33.648Z,19.10
2018-05-03T09:22:01.208Z,19.40
2018-05-03T09:24:28.786Z,19.50
2018-05-03T09:26:56.343Z,19.60
2018-05-03T09:29:23.915Z,19.80
2018-05-03T09:31:51.471Z,19.90
2018-05-03T09:34:19.820Z,19.90
2018-05-03T09:36:47.372Z,19.90
2018-05-03T09:39:15.037Z,19.90
2018-05-03T09:41:42.525Z,20.00
2018-05-03T09:44:10.099Z,20.20
2018-05-03T09:46:37.643Z,20.30
2018-05-03T09:49:05.217Z,20.40
2018-05-03T09:51:32.772Z,20.60
2018-05-03T09:54:00.348Z,20.80
2018-05-03T09:56:27.901Z,20.80
2018-05-03T09:58:56.244Z,20.70
2018-05-03T10:01:23.796Z,20.70
2018-05-03T10:03:51.355Z,20.90
2018-05-03T10:06:18.925Z,21.00
2018-05-03T10:08:46.488Z,21.30
2018-05-03T10:11:14.823Z,21.30
2018-05-03T10:13:42.367Z,21.30
2018-05-03T10:16:09.944Z,21.40
2018-05-03T10:18:37.487Z,21.30
2018-05-03T10:21:05.824Z,20.10
2018-05-03T10:23:33.369Z,20.10
2018-05-03T10:26:00.942Z,19.50
2018-05-03T10:28:28.491Z,19.10
2018-05-03T10:30:56.825Z,19.00
2018-05-03T10:33:24.380Z,19.00
2018-05-03T10:35:51.963Z,19.20
2018-05-03T10:38:19.529Z,19.50
2018-05-03T10:40:47.126Z,19.80
2018-05-03T10:43:14.688Z,19.80
2018-05-03T10:45:42.243Z,19.60
2018-05-03T10:48:09.809Z,19.60
2018-05-03T10:50:37.364Z,19.70
2018-05-03T10:53:04.935Z,19.80
2018-05-03T10:55:32.492Z,20.10
2018-05-03T10:58:00.827Z,20.10
2018-05-03T11:00:28.384Z,20.10
2018-05-03T11:02:55.957Z,20.10
2018-05-03T11:05:23.596Z,20.30
2018-05-03T11:07:51.115Z,20.40
2018-05-03T11:10:18.664Z,20.90
2018-05-03T11:12:46.237Z,21.20
2018-05-03T11:15:13.789Z,21.10
2018-05-03T11:17:42.137Z,20.60
2018-05-03T11:20:09.696Z,20.60
2018-05-03T11:22:37.289Z,20.70
2018-05-03T11:25:04.844Z,21.30
2018-05-03T11:27:32.412Z,21.60
2018-05-03T11:29:59.985Z,21.80
2018-05-03T11:32:27.545Z,22.00
2018-05-03T11:34:55.111Z,22.00
2018-05-03T11:37:22.667Z,21.70
2018-05-03T11:39:50.241Z,21.40
2018-05-03T11:42:17.787Z,21.30
2018-05-03T11:44:46.124Z,21.20
2018-05-03T11:47:13.773Z,21.10
2018-05-03T11:49:41.345Z,21.40
2018-05-03T11:52:08.900Z,21.70
2018-05-03T11:54:36.499Z,21.80
2018-05-03T11:57:04.060Z,22.00
2018-05-03T11:59:31.705Z,22.10
2018-05-03T12:01:59.199Z,22.10
2018-05-03T12:04:26.750Z,22.10
2018-05-03T12:06:55.093Z,21.90
2018-05-03T12:09:22.647Z,21.90
2018-05-03T12:11:50.311Z,21.70
2018-05-03T12:14:17.785Z,21.60
2018-05-03T12:16:45.356Z,21.60
2018-05-03T12:19:12.907Z,21.10
2018-05-03T12:21:41.248Z,20.70
2018-05-03T12:24:08.801Z,20.70
2018-05-03T12:26:36.383Z,20.50
2018-05-03T12:29:03.935Z,20.60
2018-05-03T12:31:31.535Z,20.70
2018-05-03T12:33:59.084Z,21.00
2018-05-03T12:36:26.644Z,21.30
2018-05-03T12:38:54.220Z,21.20
2018-05-03T12:41:21.779Z,20.90
2018-05-03T12:43:49.351Z,20.50
2018-05-03T12:46:16.902Z,20.10
2018-05-03T12:48:45.239Z,19.40
2018-05-03T12:51:12.784Z,19.30
2018-05-03T12:53:40.356Z,19.40
2018-05-03T12:56:07.907Z,19.50
2018-05-03T12:58:36.255Z,19.20
2018-05-03T13:01:03.799Z,19.20
2018-05-03T13:03:31.368Z,19.10
2018-05-03T13:05:58.916Z,19.10
2018-05-03T13:08:27.251Z,19.00
2018-05-03T13:10:54.795Z,19.00
2018-05-03T13:13:23.131Z,18.80
2018-05-03T13:15:50.683Z,18.80
2018-05-03T13:18:18.236Z,18.80
2018-05-03T13:20:45.864Z,19.00
2018-05-03T13:23:13.416Z,19.30
2018-05-03T13:25:40.994Z,20.00
2018-05-03T13:28:09.317Z,19.10
2018-05-03T13:30:37.668Z,18.30
2018-05-03T13:33:05.227Z,18.30
2018-05-03T13:35:32.808Z,17.70
2018-05-03T13:38:00.364Z,17.60
2018-05-03T13:40:27.946Z,17.70
2018-05-03T13:42:55.499Z,17.90
2018-05-03T13:45:23.072Z,18.40
2018-05-03T13:47:50.628Z,18.50
2018-05-03T13:50:18.204Z,18.80
2018-05-03T13:52:45.758Z,19.00
2018-05-03T13:55:14.120Z,18.90
2018-05-03T13:57:41.676Z,18.80
2018-05-03T14:00:09.226Z,18.60
2018-05-03T14:02:36.800Z,18.60
2018-05-03T14:05:04.347Z,18.60
2018-05-03T14:07:32.000Z,18.60
2018-05-03T14:09:59.496Z,18.30
2018-05-03T14:12:27.067Z,18.30
2018-05-03T14:14:54.637Z,18.30
2018-05-03T14:17:22.213Z,18.20
2018-05-03T14:19:49.767Z,18.30
2018-05-03T14:22:17.339Z,18.00
2018-05-03T14:24:45.657Z,18.10
2018-05-03T14:27:13.252Z,18.10
2018-05-03T14:29:41.568Z,18.00
2018-05-03T14:32:09.944Z,18.00
2018-05-03T14:34:37.491Z,18.00
2018-05-03T14:37:05.823Z,18.10
2018-05-03T14:39:34.141Z,18.30
2018-05-03T14:42:01.707Z,18.20
2018-05-03T14:44:29.260Z,18.20
2018-05-03T14:46:57.599Z,18.30
2018-05-03T14:49:25.153Z,18.30
2018-05-03T14:51:52.716Z,18.30
2018-05-03T14:54:20.271Z,18.00
2018-05-03T14:56:48.612Z,17.70
2018-05-03T14:59:16.156Z,17.70
2018-05-03T15:01:43.719Z,17.80
2018-05-03T15:04:11.272Z,18.00
2018-05-03T15:06:39.745Z,17.90
2018-05-03T15:09:07.175Z,17.90
2018-05-03T15:11:34.724Z,17.80
2018-05-03T15:14:02.296Z,17.80
2018-05-03T15:16:29.854Z,17.80
2018-05-03T15:18:57.442Z,17.60
2018-05-03T15:21:24.995Z,17.70
2018-05-03T15:23:53.575Z,17.70
2018-05-03T15:26:21.123Z,17.70
2018-05-03T15:28:48.704Z,17.60
2018-05-03T15:31:16.267Z,17.50
2018-05-03T15:33:45.419Z,17.20
2018-05-03T15:36:12.923Z,17.20
2018-05-03T15:38:40.496Z,17.10
2018-05-03T15:41:08.048Z,17.00
2018-05-03T15:43:35.622Z,17.10
2018-05-03T15:46:03.167Z,17.00
2018-05-03T15:48:31.506Z,16.70
2018-05-03T15:50:59.071Z,16.70
2018-05-03T15:53:26.647Z,16.60
2018-05-03T15:55:54.208Z,16.40
2018-05-03T15:58:21.775Z,16.30
2018-05-03T16:00:49.329Z,16.10
2018-05-03T16:03:16.899Z,16.00
2018-05-03T16:05:44.447Z,16.10
2018-05-03T16:08:12.020Z,16.00
2018-05-03T16:10:40.347Z,15.80
2018-05-03T16:13:07.932Z,15.80
2018-05-03T16:15:35.485Z,15.80
2018-05-03T16:18:03.058Z,15.80
2018-05-03T16:20:30.694Z,15.90
2018-05-03T16:22:58.184Z,15.80
2018-05-03T16:25:26.531Z,15.50
2018-05-03T16:27:54.086Z,15.50
2018-05-03T16:30:21.652Z,15.50
2018-05-03T16:32:49.212Z,15.40
2018-05-03T16:35:16.795Z,15.30
2018-05-03T16:37:44.350Z,15.20
2018-05-03T16:40:11.921Z,15.20
2018-05-03T16:42:39.468Z,15.30
2018-05-03T16:45:07.811Z,15.20
2018-05-03T16:47:35.358Z,15.20
2018-05-03T16:50:02.925Z,15.00
2018-05-03T16:52:30.472Z,14.90
2018-05-03T16:54:58.809Z,14.80
2018-05-03T16:57:27.127Z,14.80
2018-05-03T16:59:54.691Z,14.80
2018-05-03T17:02:22.252Z,14.80
2018-05-03T17:04:49.850Z,14.70
2018-05-03T17:07:17.400Z,14.60
2018-05-03T17:09:44.985Z,14.50
2018-05-03T17:12:12.578Z,14.50
2018-05-03T17:14:40.964Z,14.40
2018-05-03T17:17:09.319Z,14.40
2018-05-03T17:19:36.943Z,14.30
2018-05-03T17:22:04.540Z,14.40
2018-05-03T17:24:32.162Z,14.50
2018-05-03T17:26:59.745Z,14.50
2018-05-03T17:29:28.143Z,14.30
2018-05-03T17:31:55.736Z,14.30
2018-05-03T17:34:23.334Z,14.40
2018-05-03T17:36:50.944Z,14.40
2018-05-03T17:39:18.537Z,14.40
2018-05-03T17:41:46.897Z,14.40
2018-05-03T17:44:14.516Z,14.30
2018-05-03T17:46:42.119Z,14.20
2018-05-03T17:49:09.716Z,14.10
2018-05-03T17:51:37.319Z,14.00
2018-05-03T17:54:05.680Z,13.70
2018-05-03T17:56:33.269Z,13.70
2018-05-03T17:59:00.818Z,13.50
2018-05-03T18:01:28.389Z,13.40
2018-05-03T18:03:55.939Z,13.20
2018-05-03T18:06:23.507Z,13.10
2018-05-03T18:08:51.058Z,13.00
2018-05-03T18:11:18.692Z,12.80
2018-05-03T18:13:46.284Z,12.50
2018-05-03T18:16:14.659Z,12.00
2018-05-03T18:18:42.188Z,12.00
2018-05-03T18:21:09.756Z,11.90
2018-05-03T18:23:37.307Z,11.90
2018-05-03T18:26:04.880Z,11.80
2018-05-03T18:28:32.447Z,11.70
2018-05-03T18:31:00.025Z,11.50
2018-05-03T18:33:27.598Z,11.30
2018-05-03T18:35:55.340Z,11.20
2018-05-03T18:38:23.683Z,11.00
2018-05-03T18:40:51.297Z,11.00
2018-05-03T18:43:19.170Z,10.80
2018-05-03T18:45:46.994Z,10.60
2018-05-03T18:48:14.770Z,10.50
2018-05-03T18:50:42.383Z,10.40
2018-05-03T18:53:10.006Z,10.30
2018-05-03T18:55:38.366Z,10.10
2018-05-03T18:58:05.956Z,10.10
2018-05-03T19:00:33.523Z,9.90
2018-05-03T19:03:01.119Z,9.80
2018-05-03T19:05:29.473Z,9.70
2018-05-03T19:07:58.073Z,9.70
2018-05-03T19:10:26.041Z,9.70
2018-05-03T19:12:53.713Z,9.70
2018-05-03T19:15:21.279Z,9.60
2018-05-03T19:17:48.872Z,9.60
2018-05-03T19:20:16.470Z,9.50
2018-05-03T19:22:44.842Z,9.40
2018-05-03T19:25:13.180Z,9.30
2018-05-03T19:27:40.887Z,9.30
2018-05-03T19:30:08.458Z,9.30
2018-05-03T19:32:36.046Z,9.20
2018-05-03T19:35:03.846Z,9.10
2018-05-03T19:37:31.590Z,9.10
2018-05-03T19:39:59.168Z,9.00
2018-05-03T19:42:26.793Z,8.90
2018-05-03T19:44:54.660Z,8.90
2018-05-03T19:47:22.226Z,8.80
2018-05-03T19:49:49.938Z,8.80
2018-05-03T19:52:17.513Z,8.80
2018-05-03T19:54:45.995Z,8.60
2018-05-03T19:57:13.602Z,8.60
2018-05-03T19:59:41.264Z,8.60
2018-05-03T20:02:08.902Z,8.50
2018-05-03T20:04:37.280Z,8.50
2018-05-03T20:07:04.859Z,8.50
2018-05-03T20:09:32.446Z,8.40
2018-05-03T20:12:00.790Z,8.40
2018-05-03T20:14:28.350Z,8.40
2018-05-03T20:16:56.847Z,8.40
2018-05-03T20:19:24.457Z,8.50
2018-05-03T20:21:52.028Z,8.50
2018-05-03T20:24:19.631Z,8.60
2018-05-03T20:26:47.965Z,8.40
2018-05-03T20:29:15.545Z,8.40
2018-05-03T20:31:43.104Z,8.30
2018-05-03T20:34:10.689Z,8.20
2018-05-03T20:36:38.253Z,8.10
2018-05-03T20:39:05.821Z,8.10
2018-05-03T20:41:33.368Z,7.90
2018-05-03T20:44:00.937Z,7.80
2018-05-03T20:46:28.479Z,7.80
2018-05-03T20:48:56.043Z,7.70
2018-05-03T20:51:23.594Z,7.70
2018-05-03T20:53:51.140Z,7.70
2018-05-03T20:56:18.716Z,7.60
2018-05-03T20:58:46.277Z,7.60
2018-05-03T21:01:13.849Z,7.50
2018-05-03T21:03:41.395Z,7.50
2018-05-03T21:06:09.754Z,7.20
2018-05-03T21:08:37.311Z,7.20
2018-05-03T21:11:04.884Z,7.10
2018-05-03T21:13:32.436Z,6.90
2018-05-03T21:16:00.008Z,6.70
2018-05-03T21:18:27.548Z,6.60
2018-05-03T21:20:55.880Z,6.40
2018-05-03T21:23:23.436Z,6.40
2018-05-03T21:25:51.000Z,6.30
2018-05-03T21:28:18.541Z,6.20
2018-05-03T21:30:46.877Z,6.00
2018-05-03T21:33:14.425Z,6.00
2018-05-03T21:35:41.991Z,5.90
2018-05-03T21:38:09.536Z,5.90
2018-05-03T21:40:37.107Z,5.80
2018-05-03T21:43:04.656Z,5.80
2018-05-03T21:45:32.225Z,5.70
2018-05-03T21:47:59.777Z,5.60
2018-05-03T21:50:27.339Z,5.60
2018-05-03T21:52:54.893Z,5.50
2018-05-03T21:55:22.459Z,5.40
2018-05-03T21:57:50.769Z,5.30
2018-05-03T22:00:18.339Z,5.30
2018-05-03T22:02:45.893Z,5.30
2018-05-03T22:05:14.221Z,5.20
2018-05-03T22:07:41.800Z,5.20
2018-05-03T22:10:09.352Z,5.20
2018-05-03T22:12:36.915Z,5.10
2018-05-03T22:15:04.466Z,5.00
2018-05-03T22:17:32.797Z,4.80
2018-05-03T22:20:00.348Z,4.80
2018-05-03T22:22:27.917Z,4.70
2018-05-03T22:24:55.459Z,4.60
2018-05-03T22:27:23.794Z,4.50
2018-05-03T22:29:51.345Z,4.50
2018-05-03T22:32:18.910Z,4.50
2018-05-03T22:34:46.464Z,4.40
2018-05-03T22:37:14.808Z,4.40
2018-05-03T22:39:42.356Z,4.40
2018-05-03T22:42:09.920Z,4.50
2018-05-03T22:44:37.465Z,4.40
2018-05-03T22:47:05.808Z,4.30
2018-05-03T22:49:33.352Z,4.30
2018-05-03T22:52:00.916Z,4.30
2018-05-03T22:54:28.460Z,4.20
2018-05-03T22:56:56.099Z,4.10
2018-05-03T22:59:23.645Z,4.00
2018-05-03T23:01:51.207Z,3.90
2018-05-03T23:04:18.746Z,3.90
2018-05-03T23:06:46.318Z,3.80
2018-05-03T23:09:13.871Z,3.80
2018-05-03T23:11:41.435Z,3.70
2018-05-03T23:14:08.981Z,3.70
2018-05-03T23:16:36.564Z,3.70
2018-05-03T23:19:04.121Z,3.60
2018-05-03T23:21:31.667Z,3.60
2018-05-03T23:23:59.992Z,3.50
2018-05-03T23:26:27.544Z,3.40
2018-05-03T23:28:55.112Z,3.40
2018-05-03T23:31:22.661Z,3.40
2018-05-03T23:33:50.228Z,3.30
2018-05-03T23:36:17.779Z,3.30
2018-05-03T23:38:45.348Z,3.30
2018-05-03T23:41:12.901Z,3.20
2018-05-03T23:43:40.472Z,3.20
2018-05-03T23:46:08.020Z,3.20
2018-05-03T23:48:35.589Z,3.20
2018-05-03T23:51:03.140Z,3.10
2018-05-03T23:53:31.479Z,3.00
2018-05-03T23:55:59.023Z,3.00
2018-05-03T23:58:26.587Z,3.00
